Skip Navigation Linkwww.weather.gov 
NOAA logo - Select to go to the NOAA homepage National Weather Service
 Headquarters Office   NWS logo
Internet Weather Source
 
   
 

On or about April 4th, 2012, request for METARS through this service will be redirected to:

http://www.aviationweather.gov/adds/metars/

This redirection is part of a larger effort to reduce duplication of effort within the National Weather Service. The website above offers the same functionality. It also needs to be noted that the NWS Aviation Weather Center operated website above is the only FAA approved source of aviation weather overe the Internet to be used for pilot briefings. Please update bookmarks, links, etc..

OTBD

The most recent METAR observation from OTBD in our system was generated at the source at:

2014/09/16 04:09 UTC

The observation is:


2014/09/16 04:30 OTBD 160430Z 23005KT 140V270 8000 NSC 32/26 Q1005 NOSIG


US Dept of Commerce
National Oceanic and Atmospheric Administration
National Weather Service
Office of the Chief Information Officer (OCIO13)
1325 East West Highway
Silver Spring, MD 20910
Page last modified: Feb 28, 2012
Page Author: NWS Webmaster
Disclaimer
Feedback
Privacy Notice
Credits